sensor_id;sensor_type;location;lat;lon;timestamp;pressure;altitude;pressure_sealevel;temperature;humidity
25350;BME280;13302;48.796;11.978;2023-02-12T00:00:39;98645.44;;;6.63;35.20
25350;BME280;13302;48.796;11.978;2023-02-12T00:03:26;98647.91;;;6.65;35.45
25350;BME280;13302;48.796;11.978;2023-02-12T00:06:14;98645.97;;;6.65;35.49
25350;BME280;13302;48.796;11.978;2023-02-12T00:09:02;98649.28;;;6.67;35.45
25350;BME280;13302;48.796;11.978;2023-02-12T00:11:49;98655.88;;;6.66;35.21
25350;BME280;13302;48.796;11.978;2023-02-12T00:14:36;98647.34;;;6.68;35.27
25350;BME280;13302;48.796;11.978;2023-02-12T00:17:24;98632.47;;;6.69;35.49
25350;BME280;13302;48.796;11.978;2023-02-12T00:20:11;98630.28;;;6.71;35.39
25350;BME280;13302;48.796;11.978;2023-02-12T00:22:58;98626.16;;;6.73;35.35
25350;BME280;13302;48.796;11.978;2023-02-12T00:25:45;98614.06;;;6.74;35.53
25350;BME280;13302;48.796;11.978;2023-02-12T00:28:32;98617.06;;;6.73;35.32
25350;BME280;13302;48.796;11.978;2023-02-12T00:31:21;98619.00;;;6.72;35.36
25350;BME280;13302;48.796;11.978;2023-02-12T00:34:10;98622.03;;;6.71;35.61
25350;BME280;13302;48.796;11.978;2023-02-12T00:37:00;98632.78;;;6.67;35.62
25350;BME280;13302;48.796;11.978;2023-02-12T00:39:47;98636.63;;;6.66;35.57
25350;BME280;13302;48.796;11.978;2023-02-12T00:42:33;98635.81;;;6.66;35.58
25350;BME280;13302;48.796;11.978;2023-02-12T00:45:20;98635.81;;;6.66;35.80
25350;BME280;13302;48.796;11.978;2023-02-12T00:48:07;98634.16;;;6.65;35.69
25350;BME280;13302;48.796;11.978;2023-02-12T00:50:55;98639.94;;;6.63;35.68
25350;BME280;13302;48.796;11.978;2023-02-12T00:53:42;98642.41;;;6.65;35.83
25350;BME280;13302;48.796;11.978;2023-02-12T00:56:29;98647.06;;;6.64;35.87
25350;BME280;13302;48.796;11.978;2023-02-12T00:59:16;98649.03;;;6.64;35.93
25350;BME280;13302;48.796;11.978;2023-02-12T01:02:03;98658.06;;;6.64;36.03
25350;BME280;13302;48.796;11.978;2023-02-12T01:04:50;98653.69;;;6.63;35.93
25350;BME280;13302;48.796;11.978;2023-02-12T01:07:37;98652.88;;;6.63;36.07
25350;BME280;13302;48.796;11.978;2023-02-12T01:10:26;98653.13;;;6.61;36.01
25350;BME280;13302;48.796;11.978;2023-02-12T01:13:14;98648.19;;;6.63;35.88
25350;BME280;13302;48.796;11.978;2023-02-12T01:16:12;98641.88;;;6.63;36.00
25350;BME280;13302;48.796;11.978;2023-02-12T01:19:00;98654.47;;;6.69;36.19
25350;BME280;13302;48.796;11.978;2023-02-12T01:21:47;98671.22;;;6.72;36.13
25350;BME280;13302;48.796;11.978;2023-02-12T01:24:34;98665.19;;;6.75;36.01
25350;BME280;13302;48.796;11.978;2023-02-12T01:27:21;98661.59;;;6.75;36.07
25350;BME280;13302;48.796;11.978;2023-02-12T01:30:10;98657.19;;;6.74;36.06
25350;BME280;13302;48.796;11.978;2023-02-12T01:32:57;98658.03;;;6.74;36.19
25350;BME280;13302;48.796;11.978;2023-02-12T01:35:46;98664.34;;;6.75;36.14
25350;BME280;13302;48.796;11.978;2023-02-12T01:38:33;98662.44;;;6.75;36.00
25350;BME280;13302;48.796;11.978;2023-02-12T01:41:23;98665.69;;;6.77;36.13
25350;BME280;13302;48.796;11.978;2023-02-12T01:44:12;98659.69;;;6.75;36.07
25350;BME280;13302;48.796;11.978;2023-02-12T01:47:01;98657.19;;;6.74;35.96
25350;BME280;13302;48.796;11.978;2023-02-12T01:49:48;98652.81;;;6.73;36.10
25350;BME280;13302;48.796;11.978;2023-02-12T01:52:37;98650.34;;;6.71;35.91
25350;BME280;13302;48.796;11.978;2023-02-12T01:55:25;98657.78;;;6.71;36.07
25350;BME280;13302;48.796;11.978;2023-02-12T01:58:14;98660.53;;;6.71;36.11
25350;BME280;13302;48.796;11.978;2023-02-12T02:01:04;98657.47;;;6.72;36.16
25350;BME280;13302;48.796;11.978;2023-02-12T02:03:55;98655.28;;;6.74;36.08
25350;BME280;13302;48.796;11.978;2023-02-12T02:06:55;98648.44;;;6.72;36.14
25350;BME280;13302;48.796;11.978;2023-02-12T02:09:43;98643.22;;;6.70;36.11
25350;BME280;13302;48.796;11.978;2023-02-12T02:12:30;98642.38;;;6.70;35.84
25350;BME280;13302;48.796;11.978;2023-02-12T02:15:36;98653.38;;;6.70;36.08
25350;BME280;13302;48.796;11.978;2023-02-12T02:18:34;98652.56;;;6.69;36.11
25350;BME280;13302;48.796;11.978;2023-02-12T02:33:55;98674.56;;;6.64;36.28
25350;BME280;13302;48.796;11.978;2023-02-12T02:36:46;98672.94;;;6.63;36.38
25350;BME280;13302;48.796;11.978;2023-02-12T02:40:06;98673.47;;;6.60;36.40
25350;BME280;13302;48.796;11.978;2023-02-12T02:43:09;98672.94;;;6.58;36.45
25350;BME280;13302;48.796;11.978;2023-02-12T02:46:06;98672.94;;;6.58;36.55
25350;BME280;13302;48.796;11.978;2023-02-12T02:49:02;98667.72;;;6.57;36.29
25350;BME280;13302;48.796;11.978;2023-02-12T02:51:54;98668.53;;;6.57;36.50
25350;BME280;13302;48.796;11.978;2023-02-12T02:54:53;98659.72;;;6.60;36.41
25350;BME280;13302;48.796;11.978;2023-02-12T02:57:50;98663.84;;;6.63;36.49
25350;BME280;13302;48.796;11.978;2023-02-12T03:00:47;98666.03;;;6.66;36.48
25350;BME280;13302;48.796;11.978;2023-02-12T03:03:47;98661.63;;;6.65;36.49
25350;BME280;13302;48.796;11.978;2023-02-12T03:06:42;98666.03;;;6.66;36.73
25350;BME280;13302;48.796;11.978;2023-02-12T03:09:37;98659.69;;;6.70;36.51
25350;BME280;13302;48.796;11.978;2023-02-12T03:12:32;98658.59;;;6.71;36.69
25350;BME280;13302;48.796;11.978;2023-02-12T03:15:24;98666.84;;;6.71;36.62
25350;BME280;13302;48.796;11.978;2023-02-12T03:18:18;98664.94;;;6.67;36.95
25350;BME280;13302;48.796;11.978;2023-02-12T03:21:11;98658.88;;;6.65;36.95
25350;BME280;13302;48.796;11.978;2023-02-12T03:27:16;98669.09;;;6.59;37.02
25350;BME280;13302;48.796;11.978;2023-02-12T03:30:06;98665.78;;;6.57;37.37
25350;BME280;13302;48.796;11.978;2023-02-12T03:32:59;98675.97;;;6.57;37.22
25350;BME280;13302;48.796;11.978;2023-02-12T03:35:57;98672.38;;;6.56;37.37
25350;BME280;13302;48.796;11.978;2023-02-12T03:38:53;98679.28;;;6.54;37.44
25350;BME280;13302;48.796;11.978;2023-02-12T03:42:20;98684.78;;;6.54;37.56
25350;BME280;13302;48.796;11.978;2023-02-12T03:48:32;98692.47;;;6.52;37.71
25350;BME280;13302;48.796;11.978;2023-02-12T03:51:28;98699.91;;;6.51;37.77
25350;BME280;13302;48.796;11.978;2023-02-12T03:54:17;98690.84;;;6.51;37.48
25350;BME280;13302;48.796;11.978;2023-02-12T03:57:12;98702.91;;;6.50;37.72
25350;BME280;13302;48.796;11.978;2023-02-12T04:00:10;98697.69;;;6.48;37.84
25350;BME280;13302;48.796;11.978;2023-02-12T04:03:00;98701.81;;;6.51;37.89
25350;BME280;13302;48.796;11.978;2023-02-12T04:05:47;98703.19;;;6.53;38.16
25350;BME280;13302;48.796;11.978;2023-02-12T04:08:34;98713.06;;;6.54;38.28
25350;BME280;13302;48.796;11.978;2023-02-12T04:11:46;98707.59;;;6.54;38.08
25350;BME280;13302;48.796;11.978;2023-02-12T04:17:57;98711.44;;;6.53;38.16
25350;BME280;13302;48.796;11.978;2023-02-12T04:20:54;98711.97;;;6.55;38.10
25350;BME280;13302;48.796;11.978;2023-02-12T04:24:06;98721.56;;;6.58;38.33
25350;BME280;13302;48.796;11.978;2023-02-12T04:27:28;98719.66;;;6.58;38.24
25350;BME280;13302;48.796;11.978;2023-02-12T04:30:23;98724.31;;;6.58;38.15
25350;BME280;13302;48.796;11.978;2023-02-12T04:33:17;98730.09;;;6.56;38.27
25350;BME280;13302;48.796;11.978;2023-02-12T04:36:18;98724.06;;;6.54;38.35
25350;BME280;13302;48.796;11.978;2023-02-12T04:39:15;98724.63;;;6.51;38.48
25350;BME280;13302;48.796;11.978;2023-02-12T04:42:04;98728.47;;;6.50;38.42
25350;BME280;13302;48.796;11.978;2023-02-12T04:44:52;98724.06;;;6.49;38.31
25350;BME280;13302;48.796;11.978;2023-02-12T04:47:39;98730.13;;;6.46;38.62
25350;BME280;13302;48.796;11.978;2023-02-12T04:50:40;98734.25;;;6.43;38.35
25350;BME280;13302;48.796;11.978;2023-02-12T04:53:28;98728.75;;;6.43;38.62
25350;BME280;13302;48.796;11.978;2023-02-12T04:56:16;98733.72;;;6.41;38.57
25350;BME280;13302;48.796;11.978;2023-02-12T04:59:03;98739.22;;;6.41;38.46
25350;BME280;13302;48.796;11.978;2023-02-12T05:01:50;98732.88;;;6.41;38.58
25350;BME280;13302;48.796;11.978;2023-02-12T05:04:37;98730.69;;;6.43;38.82
25350;BME280;13302;48.796;11.978;2023-02-12T05:07:25;98732.31;;;6.44;38.88
25350;BME280;13302;48.796;11.978;2023-02-12T05:10:12;98737.00;;;6.43;38.97
25350;BME280;13302;48.796;11.978;2023-02-12T05:12:59;98738.38;;;6.46;38.70
25350;BME280;13302;48.796;11.978;2023-02-12T05:15:46;98742.78;;;6.47;39.00
25350;BME280;13302;48.796;11.978;2023-02-12T05:18:34;98745.53;;;6.47;38.80
25350;BME280;13302;48.796;11.978;2023-02-12T05:21:21;98749.06;;;6.48;38.86
25350;BME280;13302;48.796;11.978;2023-02-12T05:24:08;98745.22;;;6.49;38.89
25350;BME280;13302;48.796;11.978;2023-02-12T05:26:55;98751.56;;;6.49;38.82
25350;BME280;13302;48.796;11.978;2023-02-12T05:29:42;98748.28;;;6.47;38.92
25350;BME280;13302;48.796;11.978;2023-02-12T05:32:29;98753.78;;;6.47;39.17
25350;BME280;13302;48.796;11.978;2023-02-12T05:35:16;98754.84;;;6.51;39.01
25350;BME280;13302;48.796;11.978;2023-02-12T05:38:03;98757.31;;;6.53;38.87
25350;BME280;13302;48.796;11.978;2023-02-12T05:40:50;98759.22;;;6.52;39.07
25350;BME280;13302;48.796;11.978;2023-02-12T05:43:37;98761.16;;;6.52;38.81
25350;BME280;13302;48.796;11.978;2023-02-12T05:46:24;98762.28;;;6.51;39.12
25350;BME280;13302;48.796;11.978;2023-02-12T05:49:11;98756.50;;;6.47;38.95
25350;BME280;13302;48.796;11.978;2023-02-12T05:51:58;98754.31;;;6.44;39.00
25350;BME280;13302;48.796;11.978;2023-02-12T05:54:49;98757.34;;;6.42;38.98
25350;BME280;13302;48.796;11.978;2023-02-12T05:57:36;98755.13;;;6.39;38.94
25350;BME280;13302;48.796;11.978;2023-02-12T06:00:23;98766.41;;;6.38;39.07
25350;BME280;13302;48.796;11.978;2023-02-12T06:03:10;98764.22;;;6.35;39.15
25350;BME280;13302;48.796;11.978;2023-02-12T06:05:57;98760.91;;;6.33;39.22
25350;BME280;13302;48.796;11.978;2023-02-12T06:08:47;98765.88;;;6.31;39.26
25350;BME280;13302;48.796;11.978;2023-02-12T06:11:35;98770.00;;;6.33;39.33
25350;BME280;13302;48.796;11.978;2023-02-12T06:14:22;98771.66;;;6.34;39.49
25350;BME280;13302;48.796;11.978;2023-02-12T06:17:09;98769.72;;;6.35;39.42
25350;BME280;13302;48.796;11.978;2023-02-12T06:19:56;98767.50;;;6.37;39.50
25350;BME280;13302;48.796;11.978;2023-02-12T06:22:43;98768.34;;;6.37;39.42
25350;BME280;13302;48.796;11.978;2023-02-12T06:25:30;98771.91;;;6.38;39.43
25350;BME280;13302;48.796;11.978;2023-02-12T06:28:17;98771.91;;;6.38;39.42
25350;BME280;13302;48.796;11.978;2023-02-12T06:31:04;98775.75;;;6.37;39.56
25350;BME280;13302;48.796;11.978;2023-02-12T06:33:53;98782.91;;;6.38;39.42
25350;BME280;13302;48.796;11.978;2023-02-12T06:36:41;98782.91;;;6.38;39.23
25350;BME280;13302;48.796;11.978;2023-02-12T06:39:30;98787.56;;;6.37;39.50
25350;BME280;13302;48.796;11.978;2023-02-12T06:42:17;98782.63;;;6.34;39.25
25350;BME280;13302;48.796;11.978;2023-02-12T06:45:04;98786.47;;;6.33;39.53
25350;BME280;13302;48.796;11.978;2023-02-12T06:47:51;98787.84;;;6.31;39.47
25350;BME280;13302;48.796;11.978;2023-02-12T06:50:38;98787.03;;;6.30;39.65
25350;BME280;13302;48.796;11.978;2023-02-12T06:53:25;98787.28;;;6.29;39.55
25350;BME280;13302;48.796;11.978;2023-02-12T06:56:12;98788.38;;;6.28;39.64
25350;BME280;13302;48.796;11.978;2023-02-12T06:58:59;98790.03;;;6.29;39.62
25350;BME280;13302;48.796;11.978;2023-02-12T07:01:47;98786.22;;;6.30;39.77
25350;BME280;13302;48.796;11.978;2023-02-12T07:04:33;98787.56;;;6.32;39.75
25350;BME280;13302;48.796;11.978;2023-02-12T07:07:20;98794.72;;;6.33;39.56
25350;BME280;13302;48.796;11.978;2023-02-12T07:10:08;98801.03;;;6.34;39.66
25350;BME280;13302;48.796;11.978;2023-02-12T07:12:55;98800.22;;;6.33;39.77
25350;BME280;13302;48.796;11.978;2023-02-12T07:15:42;98806.53;;;6.34;39.86
25350;BME280;13302;48.796;11.978;2023-02-12T07:18:29;98805.44;;;6.35;39.74
25350;BME280;13302;48.796;11.978;2023-02-12T07:21:16;98806.22;;;6.35;39.83
25350;BME280;13302;48.796;11.978;2023-02-12T07:24:04;98811.72;;;6.35;40.03
25350;BME280;13302;48.796;11.978;2023-02-12T07:26:51;98812.03;;;6.34;39.84
25350;BME280;13302;48.796;11.978;2023-02-12T07:29:38;98815.59;;;6.34;40.01
25350;BME280;13302;48.796;11.978;2023-02-12T07:32:25;98810.94;;;6.35;40.10
25350;BME280;13302;48.796;11.978;2023-02-12T07:35:12;98815.59;;;6.34;39.99
25350;BME280;13302;48.796;11.978;2023-02-12T07:37:59;98808.44;;;6.33;40.13
25350;BME280;13302;48.796;11.978;2023-02-12T07:40:46;98815.59;;;6.34;40.18
25350;BME280;13302;48.796;11.978;2023-02-12T07:43:33;98816.13;;;6.36;40.08
25350;BME280;13302;48.796;11.978;2023-02-12T07:46:22;98809.81;;;6.36;40.25
25350;BME280;13302;48.796;11.978;2023-02-12T07:49:17;98807.06;;;6.36;40.08
25350;BME280;13302;48.796;11.978;2023-02-12T07:52:04;98810.06;;;6.39;40.40
25350;BME280;13302;48.796;11.978;2023-02-12T07:54:51;98806.78;;;6.42;40.15
25350;BME280;13302;48.796;11.978;2023-02-12T07:57:38;98808.72;;;6.42;40.28
25350;BME280;13302;48.796;11.978;2023-02-12T08:00:25;98803.22;;;6.42;40.30
25350;BME280;13302;48.796;11.978;2023-02-12T08:03:12;98815.56;;;6.44;40.26
25350;BME280;13302;48.796;11.978;2023-02-12T08:05:59;98801.56;;;6.46;40.26
25350;BME280;13302;48.796;11.978;2023-02-12T08:08:46;98809.50;;;6.48;40.26
25350;BME280;13302;48.796;11.978;2023-02-12T08:11:33;98813.09;;;6.48;40.25
25350;BME280;13302;48.796;11.978;2023-02-12T08:14:21;98806.75;;;6.48;40.36
25350;BME280;13302;48.796;11.978;2023-02-12T08:17:08;98816.66;;;6.49;40.39
25350;BME280;13302;48.796;11.978;2023-02-12T08:19:55;98812.56;;;6.51;40.39
25350;BME280;13302;48.796;11.978;2023-02-12T08:22:41;98818.59;;;6.53;40.42
25350;BME280;13302;48.796;11.978;2023-02-12T08:25:28;98815.00;;;6.58;40.47
25350;BME280;13302;48.796;11.978;2023-02-12T08:28:15;98816.66;;;6.59;40.55
25350;BME280;13302;48.796;11.978;2023-02-12T08:31:05;98815.28;;;6.61;40.43
25350;BME280;13302;48.796;11.978;2023-02-12T08:33:54;98815.00;;;6.63;40.41
25350;BME280;13302;48.796;11.978;2023-02-12T08:36:41;98811.97;;;6.64;40.55
25350;BME280;13302;48.796;11.978;2023-02-12T08:39:29;98818.84;;;6.67;40.43
25350;BME280;13302;48.796;11.978;2023-02-12T08:42:16;98822.13;;;6.69;40.61
25350;BME280;13302;48.796;11.978;2023-02-12T08:45:03;98824.59;;;6.70;40.46
25350;BME280;13302;48.796;11.978;2023-02-12T08:47:50;98819.94;;;6.71;40.30
25350;BME280;13302;48.796;11.978;2023-02-12T08:50:37;98816.09;;;6.72;40.40
25350;BME280;13302;48.796;11.978;2023-02-12T08:53:24;98811.38;;;6.72;40.39
25350;BME280;13302;48.796;11.978;2023-02-12T08:56:14;98801.53;;;6.71;40.58
25350;BME280;13302;48.796;11.978;2023-02-12T08:59:03;98802.88;;;6.74;40.52
25350;BME280;13302;48.796;11.978;2023-02-12T09:01:51;98806.97;;;6.76;40.39
25350;BME280;13302;48.796;11.978;2023-02-12T09:04:38;98812.47;;;6.76;40.46
25350;BME280;13302;48.796;11.978;2023-02-12T09:07:26;98814.97;;;6.78;40.79
25350;BME280;13302;48.796;11.978;2023-02-12T09:10:13;98815.78;;;6.78;40.46
25350;BME280;13302;48.796;11.978;2023-02-12T09:13:01;98819.63;;;6.82;40.52
25350;BME280;13302;48.796;11.978;2023-02-12T09:15:48;98820.97;;;6.85;40.60
25350;BME280;13302;48.796;11.978;2023-02-12T09:18:36;98828.13;;;6.86;40.59
25350;BME280;13302;48.796;11.978;2023-02-12T09:21:24;98823.19;;;6.88;40.69
25350;BME280;13302;48.796;11.978;2023-02-12T09:24:11;98832.25;;;6.88;40.52
25350;BME280;13302;48.796;11.978;2023-02-12T09:26:58;98831.44;;;6.88;40.53
25350;BME280;13302;48.796;11.978;2023-02-12T09:29:45;98839.13;;;6.86;40.56
25350;BME280;13302;48.796;11.978;2023-02-12T09:32:32;98839.41;;;6.84;40.41
25350;BME280;13302;48.796;11.978;2023-02-12T09:35:19;98839.97;;;6.81;40.68
25350;BME280;13302;48.796;11.978;2023-02-12T09:38:06;98841.63;;;6.82;40.72
25350;BME280;13302;48.796;11.978;2023-02-12T09:44:14;98848.19;;;6.86;40.63
25350;BME280;13302;48.796;11.978;2023-02-12T09:47:15;98847.63;;;6.89;40.80
25350;BME280;13302;48.796;11.978;2023-02-12T09:50:23;98847.38;;;6.91;40.85
25350;BME280;13302;48.796;11.978;2023-02-12T09:53:15;98858.63;;;6.95;40.75
25350;BME280;13302;48.796;11.978;2023-02-12T09:56:10;98859.19;;;6.97;40.75
25350;BME280;13302;48.796;11.978;2023-02-12T09:59:00;98862.47;;;6.99;40.79
25350;BME280;13302;48.796;11.978;2023-02-12T10:01:48;98858.31;;;7.01;40.72
25350;BME280;13302;48.796;11.978;2023-02-12T10:04:35;98854.47;;;7.02;40.64
25350;BME280;13302;48.796;11.978;2023-02-12T10:07:46;98856.97;;;7.04;40.72
25350;BME280;13302;48.796;11.978;2023-02-12T10:13:51;98857.22;;;7.12;40.93
25350;BME280;13302;48.796;11.978;2023-02-12T10:23:11;98850.00;;;7.21;40.60
25350;BME280;13302;48.796;11.978;2023-02-12T10:26:20;98852.50;;;7.23;40.84
25350;BME280;13302;48.796;11.978;2023-02-12T10:29:29;98849.72;;;7.28;40.80
25350;BME280;13302;48.796;11.978;2023-02-12T10:32:23;98854.97;;;7.29;40.63
25350;BME280;13302;48.796;11.978;2023-02-12T10:35:14;98852.72;;;7.31;40.63
25350;BME280;13302;48.796;11.978;2023-02-12T10:38:09;98852.47;;;7.33;40.65
25350;BME280;13302;48.796;11.978;2023-02-12T10:40:59;98856.59;;;7.35;40.85
25350;BME280;13302;48.796;11.978;2023-02-12T10:43:47;98857.94;;;7.38;40.87
25350;BME280;13302;48.796;11.978;2023-02-12T10:46:34;98852.44;;;7.38;40.81
25350;BME280;13302;48.796;11.978;2023-02-12T10:49:21;98856.84;;;7.39;40.61
25350;BME280;13302;48.796;11.978;2023-02-12T10:52:21;98861.00;;;7.42;40.74
25350;BME280;13302;48.796;11.978;2023-02-12T10:58:21;98849.94;;;7.47;40.58
25350;BME280;13302;48.796;11.978;2023-02-12T11:07:08;98850.72;;;7.57;40.57
25350;BME280;13302;48.796;11.978;2023-02-12T11:09:56;98844.91;;;7.59;40.69
25350;BME280;13302;48.796;11.978;2023-02-12T11:12:43;98843.56;;;7.61;40.41
25350;BME280;13302;48.796;11.978;2023-02-12T11:15:37;98841.31;;;7.63;40.26
25350;BME280;13302;48.796;11.978;2023-02-12T11:18:33;98837.47;;;7.64;40.45
25350;BME280;13302;48.796;11.978;2023-02-12T11:21:22;98838.28;;;7.65;40.44
25350;BME280;13302;48.796;11.978;2023-02-12T11:24:28;98842.41;;;7.67;40.56
25350;BME280;13302;48.796;11.978;2023-02-12T11:27:24;98839.09;;;7.70;40.35
25350;BME280;13302;48.796;11.978;2023-02-12T11:30:19;98839.63;;;7.72;40.33
25350;BME280;13302;48.796;11.978;2023-02-12T11:33:22;98835.78;;;7.73;40.23
25350;BME280;13302;48.796;11.978;2023-02-12T11:39:04;98840.13;;;7.79;40.26
25350;BME280;13302;48.796;11.978;2023-02-12T11:42:02;98837.38;;;7.79;40.24
25350;BME280;13302;48.796;11.978;2023-02-12T11:44:57;98833.25;;;7.82;40.41
25350;BME280;13302;48.796;11.978;2023-02-12T11:47:46;98833.50;;;7.86;40.36
25350;BME280;13302;48.796;11.978;2023-02-12T11:50:34;98831.56;;;7.86;40.28
25350;BME280;13302;48.796;11.978;2023-02-12T11:53:24;98841.44;;;7.87;40.29
25350;BME280;13302;48.796;11.978;2023-02-12T11:56:13;98839.25;;;7.89;40.12
25350;BME280;13302;48.796;11.978;2023-02-12T11:59:11;98832.91;;;7.89;40.43
25350;BME280;13302;48.796;11.978;2023-02-12T12:05:11;98831.78;;;7.95;40.18
25350;BME280;13302;48.796;11.978;2023-02-12T12:08:04;98833.13;;;7.97;40.17
25350;BME280;13302;48.796;11.978;2023-02-12T12:10:57;98830.38;;;7.97;40.29
25350;BME280;13302;48.796;11.978;2023-02-12T12:13:55;98838.63;;;7.97;40.22
25350;BME280;13302;48.796;11.978;2023-02-12T12:16:59;98833.72;;;7.94;40.30
25350;BME280;13302;48.796;11.978;2023-02-12T12:20:15;98824.06;;;7.92;40.47
25350;BME280;13302;48.796;11.978;2023-02-12T12:23:10;98829.84;;;7.95;40.64
25350;BME280;13302;48.796;11.978;2023-02-12T12:26:09;98824.03;;;7.97;40.41
25350;BME280;13302;48.796;11.978;2023-02-12T12:31:57;98819.91;;;7.99;40.57
25350;BME280;13302;48.796;11.978;2023-02-12T12:34:46;98829.25;;;8.03;40.60
25350;BME280;13302;48.796;11.978;2023-02-12T12:37:57;98824.53;;;8.04;40.65
25350;BME280;13302;48.796;11.978;2023-02-12T12:40:57;98823.72;;;8.03;40.45
25350;BME280;13302;48.796;11.978;2023-02-12T12:54:09;98814.88;;;8.06;40.40
25350;BME280;13302;48.796;11.978;2023-02-12T13:06:52;98812.34;;;8.15;40.18
25350;BME280;13302;48.796;11.978;2023-02-12T13:09:54;98812.59;;;8.18;40.00
25350;BME280;13302;48.796;11.978;2023-02-12T13:12:50;98807.59;;;8.20;40.08
25350;BME280;13302;48.796;11.978;2023-02-12T13:16:00;98811.19;;;8.21;40.08
25350;BME280;13302;48.796;11.978;2023-02-12T13:19:12;98809.25;;;8.21;40.08
25350;BME280;13302;48.796;11.978;2023-02-12T13:28:29;98808.66;;;8.24;40.15
25350;BME280;13302;48.796;11.978;2023-02-12T13:31:23;98817.19;;;8.28;39.95
25350;BME280;13302;48.796;11.978;2023-02-12T13:34:21;98812.75;;;8.32;39.97
25350;BME280;13302;48.796;11.978;2023-02-12T13:37:17;98807.75;;;8.34;40.01
25350;BME280;13302;48.796;11.978;2023-02-12T13:40:07;98812.16;;;8.35;39.96
25350;BME280;13302;48.796;11.978;2023-02-12T13:49:59;98811.06;;;8.36;39.80
25350;BME280;13302;48.796;11.978;2023-02-12T13:53:00;98807.19;;;8.37;40.02
25350;BME280;13302;48.796;11.978;2023-02-12T14:05:22;98800.56;;;8.38;39.80
25350;BME280;13302;48.796;11.978;2023-02-12T14:08:30;98802.50;;;8.38;39.82
25350;BME280;13302;48.796;11.978;2023-02-12T14:11:23;98789.25;;;8.40;39.84
25350;BME280;13302;48.796;11.978;2023-02-12T14:14:11;98791.72;;;8.41;39.78
25350;BME280;13302;48.796;11.978;2023-02-12T14:17:38;98790.09;;;8.40;39.80
25350;BME280;13302;48.796;11.978;2023-02-12T14:20:30;98798.63;;;8.39;39.76
25350;BME280;13302;48.796;11.978;2023-02-12T14:23:25;98792.84;;;8.40;39.79
25350;BME280;13302;48.796;11.978;2023-02-12T14:26:14;98784.00;;;8.43;39.53
25350;BME280;13302;48.796;11.978;2023-02-12T14:29:03;98789.19;;;8.45;39.63
25350;BME280;13302;48.796;11.978;2023-02-12T14:31:52;98792.50;;;8.47;39.79
25350;BME280;13302;48.796;11.978;2023-02-12T14:34:39;98788.63;;;8.48;39.90
25350;BME280;13302;48.796;11.978;2023-02-12T14:37:34;98777.59;;;8.48;39.83
25350;BME280;13302;48.796;11.978;2023-02-12T14:43:36;98786.66;;;8.53;39.74
25350;BME280;13302;48.796;11.978;2023-02-12T14:46:49;98783.84;;;8.58;39.56
25350;BME280;13302;48.796;11.978;2023-02-12T14:49:48;98774.19;;;8.61;39.55
25350;BME280;13302;48.796;11.978;2023-02-12T14:52:38;98782.72;;;8.64;39.83
25350;BME280;13302;48.796;11.978;2023-02-12T14:55:30;98774.66;;;8.68;39.57
25350;BME280;13302;48.796;11.978;2023-02-12T14:58:22;98772.16;;;8.71;39.50
25350;BME280;13302;48.796;11.978;2023-02-12T15:01:11;98774.03;;;8.76;39.42
25350;BME280;13302;48.796;11.978;2023-02-12T15:04:06;98780.94;;;8.73;39.50
25350;BME280;13302;48.796;11.978;2023-02-12T15:07:08;98774.84;;;8.77;39.43
25350;BME280;13302;48.796;11.978;2023-02-12T15:09:59;98777.28;;;8.78;39.35
25350;BME280;13302;48.796;11.978;2023-02-12T15:13:07;98776.19;;;8.79;39.32
25350;BME280;13302;48.796;11.978;2023-02-12T15:16:19;98769.03;;;8.78;39.53
25350;BME280;13302;48.796;11.978;2023-02-12T15:22:51;98766.81;;;8.80;39.24
25350;BME280;13302;48.796;11.978;2023-02-12T15:25:32;98773.16;;;8.81;39.30
25350;BME280;13302;48.796;11.978;2023-02-12T15:28:23;98769.25;;;8.82;39.30
25350;BME280;13302;48.796;11.978;2023-02-12T15:31:15;98769.56;;;8.80;38.97
25350;BME280;13302;48.796;11.978;2023-02-12T15:34:03;98762.94;;;8.81;39.19
25350;BME280;13302;48.796;11.978;2023-02-12T15:36:53;98764.56;;;8.82;38.89
25350;BME280;13302;48.796;11.978;2023-02-12T15:39:43;98760.69;;;8.83;38.78
25350;BME280;13302;48.796;11.978;2023-02-12T15:42:36;98756.00;;;8.84;38.72
25350;BME280;13302;48.796;11.978;2023-02-12T15:45:35;98757.66;;;8.85;38.69
25350;BME280;13302;48.796;11.978;2023-02-12T15:48:28;98760.41;;;8.85;38.69
25350;BME280;13302;48.796;11.978;2023-02-12T15:54:14;98756.88;;;8.79;38.30
25350;BME280;13302;48.796;11.978;2023-02-12T15:57:18;98749.50;;;8.74;38.50
25350;BME280;13302;48.796;11.978;2023-02-12T16:00:34;98754.50;;;8.72;38.62
25350;BME280;13302;48.796;11.978;2023-02-12T16:03:33;98758.34;;;8.71;38.29
25350;BME280;13302;48.796;11.978;2023-02-12T16:06:22;98753.19;;;8.65;38.39
25350;BME280;13302;48.796;11.978;2023-02-12T16:09:24;98751.59;;;8.59;38.47
25350;BME280;13302;48.796;11.978;2023-02-12T16:12:16;98754.13;;;8.55;38.25
25350;BME280;13302;48.796;11.978;2023-02-12T16:15:05;98747.56;;;8.51;38.18
25350;BME280;13302;48.796;11.978;2023-02-12T16:17:52;98753.63;;;8.48;38.08
25350;BME280;13302;48.796;11.978;2023-02-12T16:20:39;98754.78;;;8.42;38.12
25350;BME280;13302;48.796;11.978;2023-02-12T16:23:27;98758.72;;;8.36;37.94
25350;BME280;13302;48.796;11.978;2023-02-12T16:26:23;98766.78;;;8.27;38.04
25350;BME280;13302;48.796;11.978;2023-02-12T16:29:16;98761.59;;;8.21;37.59
25350;BME280;13302;48.796;11.978;2023-02-12T16:32:03;98763.88;;;8.14;37.63
25350;BME280;13302;48.796;11.978;2023-02-12T16:37:52;98770.69;;;7.88;37.36
25350;BME280;13302;48.796;11.978;2023-02-12T16:46:53;98777.78;;;7.55;37.17
25350;BME280;13302;48.796;11.978;2023-02-12T16:49:52;98777.56;;;7.46;37.50
25350;BME280;13302;48.796;11.978;2023-02-12T16:52:39;98780.13;;;7.38;37.25
25350;BME280;13302;48.796;11.978;2023-02-12T16:55:27;98775.97;;;7.30;37.18
25350;BME280;13302;48.796;11.978;2023-02-12T16:58:13;98781.78;;;7.23;36.77
25350;BME280;13302;48.796;11.978;2023-02-12T17:01:02;98778.81;;;7.15;36.97
25350;BME280;13302;48.796;11.978;2023-02-12T17:03:50;98781.31;;;7.06;37.15